createdAt,value
2017-04-16T00:00:26.072Z,9.42
2017-04-16T00:01:25.872Z,10.83
2017-04-16T00:02:25.664Z,10.28
2017-04-16T00:03:25.481Z,11.08
2017-04-16T00:04:25.257Z,10.55
2017-04-16T00:05:25.056Z,10.53
2017-04-16T00:06:25.873Z,9.80
2017-04-16T00:07:25.686Z,10.00
2017-04-16T00:08:25.448Z,9.78
2017-04-16T00:09:25.421Z,9.80
2017-04-16T00:10:25.196Z,10.00
2017-04-16T00:11:24.959Z,10.70
2017-04-16T00:12:24.784Z,9.73
2017-04-16T00:13:24.528Z,10.03
2017-04-16T00:14:24.284Z,9.58
2017-04-16T00:15:24.128Z,8.72
2017-04-16T00:16:23.868Z,9.10
2017-04-16T00:17:23.817Z,8.88
2017-04-16T00:18:24.283Z,10.93
2017-04-16T00:19:24.852Z,9.08
2017-04-16T00:20:25.316Z,7.95
2017-04-16T00:21:26.484Z,7.97
2017-04-16T00:22:26.280Z,10.92
2017-04-16T00:23:26.108Z,8.53
2017-04-16T00:24:25.856Z,9.90
2017-04-16T00:25:25.667Z,7.65
2017-04-16T00:26:26.148Z,8.82
2017-04-16T00:27:26.001Z,8.95
2017-04-16T00:28:25.756Z,11.50
2017-04-16T00:29:25.549Z,10.65
2017-04-16T00:30:25.304Z,8.65
2017-04-16T00:31:25.099Z,7.90
2017-04-16T00:32:24.904Z,8.75
2017-04-16T00:33:25.484Z,7.07
2017-04-16T00:34:25.494Z,8.13
2017-04-16T00:35:25.251Z,12.52
2017-04-16T00:36:25.035Z,12.97
2017-04-16T00:37:24.868Z,16.68
2017-04-16T00:38:24.724Z,10.08
2017-04-16T00:39:24.499Z,8.12
2017-04-16T00:40:24.304Z,7.15
2017-04-16T00:41:24.444Z,11.12
2017-04-16T00:42:24.939Z,6.75
2017-04-16T00:43:24.716Z,8.35
2017-04-16T00:44:24.511Z,7.37
2017-04-16T00:45:24.263Z,7.65
2017-04-16T00:46:24.828Z,6.75
2017-04-16T00:47:24.595Z,7.70
2017-04-16T00:48:24.371Z,6.10
2017-04-16T00:49:24.171Z,9.05
2017-04-16T00:50:23.964Z,9.45
2017-04-16T00:51:23.800Z,9.02
2017-04-16T00:52:23.575Z,8.55
2017-04-16T00:53:23.381Z,8.38
2017-04-16T00:54:23.908Z,5.68
2017-04-16T00:55:24.439Z,9.35
2017-04-16T00:56:24.204Z,11.00
2017-04-16T00:57:24.723Z,8.07
2017-04-16T00:58:24.519Z,8.45
2017-04-16T00:59:24.264Z,7.47
2017-04-16T01:00:28.299Z,6.35
2017-04-16T01:01:33.664Z,9.43
2017-04-16T01:02:39.181Z,5.63
2017-04-16T01:03:38.948Z,8.17
2017-04-16T01:04:38.744Z,6.45
2017-04-16T01:05:38.555Z,11.42
2017-04-16T01:06:38.321Z,7.83
2017-04-16T01:07:38.844Z,7.33
2017-04-16T01:08:39.396Z,8.20
2017-04-16T01:09:39.175Z,7.37
2017-04-16T01:10:38.948Z,6.85
2017-04-16T01:11:38.716Z,7.58
2017-04-16T01:12:38.952Z,7.95
2017-04-16T01:13:38.699Z,6.02
2017-04-16T01:14:38.444Z,8.15
2017-04-16T01:15:38.224Z,7.30
2017-04-16T01:16:38.043Z,11.27
2017-04-16T01:17:37.852Z,8.00
2017-04-16T01:18:37.611Z,10.25
2017-04-16T01:19:37.371Z,8.87
2017-04-16T01:20:37.903Z,13.72
2017-04-16T01:21:38.463Z,9.15
2017-04-16T01:22:38.223Z,8.78
2017-04-16T01:23:38.823Z,8.93
2017-04-16T01:24:38.539Z,9.67
2017-04-16T01:25:39.071Z,6.23
2017-04-16T01:26:38.851Z,6.93
2017-04-16T01:27:38.639Z,8.80
2017-04-16T01:28:38.476Z,8.88
2017-04-16T01:29:38.983Z,6.57
2017-04-16T01:30:38.780Z,7.87
2017-04-16T01:31:38.631Z,8.05
2017-04-16T01:32:39.112Z,7.40
2017-04-16T01:33:39.699Z,9.45
2017-04-16T01:34:39.675Z,6.98
2017-04-16T01:35:39.499Z,9.97
2017-04-16T01:36:39.252Z,8.77
2017-04-16T01:37:39.004Z,7.55
2017-04-16T01:38:38.795Z,7.75
2017-04-16T01:39:38.591Z,8.75
2017-04-16T01:40:38.363Z,7.65
2017-04-16T01:41:38.799Z,7.93
2017-04-16T01:42:38.579Z,9.98
2017-04-16T01:43:38.348Z,9.62
2017-04-16T01:44:38.127Z,7.07
2017-04-16T01:45:37.895Z,9.22
2017-04-16T01:46:37.770Z,9.03
2017-04-16T01:47:37.543Z,11.40
2017-04-16T01:48:37.639Z,8.93
2017-04-16T01:49:37.278Z,8.98
2017-04-16T01:50:37.798Z,7.58
2017-04-16T01:51:38.294Z,7.77
2017-04-16T01:52:38.406Z,9.07
2017-04-16T01:53:38.079Z,9.73
2017-04-16T01:54:37.964Z,7.55
2017-04-16T01:55:38.466Z,8.48
2017-04-16T01:56:38.219Z,8.78
2017-04-16T01:57:37.995Z,12.42
2017-04-16T01:58:37.783Z,9.23
2017-04-16T01:59:37.566Z,9.92
2017-04-16T02:00:37.335Z,11.15
2017-04-16T02:01:37.122Z,7.82
2017-04-16T02:02:36.875Z,16.27
2017-04-16T02:03:36.699Z,8.93
2017-04-16T02:04:36.419Z,9.13
2017-04-16T02:05:36.295Z,12.87
2017-04-16T02:06:36.043Z,12.08
2017-04-16T02:07:36.611Z,9.70
2017-04-16T02:08:36.412Z,11.08
2017-04-16T02:09:36.179Z,11.42
2017-04-16T02:10:35.966Z,9.85
2017-04-16T02:11:36.491Z,8.52
2017-04-16T02:12:36.267Z,10.00
2017-04-16T02:13:36.019Z,10.72
2017-04-16T02:14:35.782Z,11.07
2017-04-16T02:15:35.518Z,9.27
2017-04-16T02:16:35.263Z,9.78
2017-04-16T02:17:35.039Z,10.67
2017-04-16T02:18:34.826Z,11.42
2017-04-16T02:19:34.886Z,10.53
2017-04-16T02:20:34.658Z,10.98
2017-04-16T02:21:34.450Z,10.20
2017-04-16T02:22:34.218Z,9.53
2017-04-16T02:23:34.155Z,9.98
2017-04-16T02:24:33.940Z,9.82
2017-04-16T02:25:33.730Z,9.48
2017-04-16T02:26:33.490Z,10.02
2017-04-16T02:27:33.270Z,11.25
2017-04-16T02:28:33.039Z,11.70
2017-04-16T02:29:33.070Z,11.62
2017-04-16T02:30:32.834Z,13.78
2017-04-16T02:31:32.642Z,10.38
2017-04-16T02:32:32.421Z,11.62
2017-04-16T02:33:32.974Z,12.92
2017-04-16T02:34:32.974Z,9.80
2017-04-16T02:35:32.754Z,10.07
2017-04-16T02:36:32.562Z,10.68
2017-04-16T02:37:32.354Z,12.80
2017-04-16T02:38:32.858Z,9.77
2017-04-16T02:39:33.705Z,11.17
2017-04-16T02:40:33.510Z,11.17
2017-04-16T02:41:33.273Z,12.65
2017-04-16T02:42:33.050Z,9.38
2017-04-16T02:43:32.810Z,8.55
2017-04-16T02:44:33.334Z,13.30
2017-04-16T02:45:33.110Z,10.08
2017-04-16T02:46:32.854Z,11.67
2017-04-16T02:47:32.618Z,10.02
2017-04-16T02:48:32.370Z,17.33
2017-04-16T02:49:32.758Z,10.45
2017-04-16T02:50:32.557Z,13.10
2017-04-16T02:51:32.353Z,11.40
2017-04-16T02:52:32.109Z,10.77
2017-04-16T02:53:31.871Z,11.47
2017-04-16T02:54:31.637Z,9.50
2017-04-16T02:55:31.442Z,10.50
2017-04-16T02:56:31.261Z,10.43
2017-04-16T02:57:31.065Z,11.50
2017-04-16T02:58:30.838Z,12.07
2017-04-16T02:59:30.670Z,9.38
2017-04-16T03:00:30.458Z,12.18
2017-04-16T03:01:31.022Z,10.20
2017-04-16T03:02:30.785Z,11.83
2017-04-16T03:03:31.294Z,10.43
2017-04-16T03:04:31.821Z,9.57
2017-04-16T03:05:32.322Z,13.80
2017-04-16T03:06:32.846Z,9.40
2017-04-16T03:07:32.621Z,14.35
2017-04-16T03:08:32.422Z,13.27
2017-04-16T03:09:32.185Z,11.52
2017-04-16T03:10:31.945Z,10.87
2017-04-16T03:11:31.721Z,12.85
2017-04-16T03:13:37.665Z,14.25
2017-04-16T03:14:37.491Z,10.23
2017-04-16T03:15:37.309Z,10.38
2017-04-16T03:16:37.069Z,10.80
2017-04-16T03:17:36.887Z,13.58
2017-04-16T03:18:36.661Z,9.80
2017-04-16T03:19:36.417Z,14.22
2017-04-16T03:20:36.925Z,14.93
2017-04-16T03:21:36.689Z,13.43
2017-04-16T03:22:36.493Z,9.52
2017-04-16T03:23:36.251Z,14.48
2017-04-16T03:24:36.041Z,11.58
2017-04-16T03:25:36.553Z,10.43
2017-04-16T03:26:37.126Z,12.87
2017-04-16T03:27:36.974Z,12.15
2017-04-16T03:28:37.477Z,12.67
2017-04-16T03:29:37.265Z,11.00
2017-04-16T03:30:37.005Z,13.33
2017-04-16T03:31:36.801Z,10.68
2017-04-16T03:32:36.722Z,12.75
2017-04-16T03:33:36.494Z,12.58
2017-04-16T03:34:36.261Z,12.43
2017-04-16T03:35:36.805Z,13.45
2017-04-16T03:36:36.573Z,12.40
2017-04-16T03:37:36.361Z,12.58
2017-04-16T03:38:36.418Z,13.20
2017-04-16T03:39:36.929Z,16.37
2017-04-16T03:40:36.701Z,13.25
2017-04-16T03:41:36.489Z,14.25
2017-04-16T03:42:36.281Z,12.10
2017-04-16T03:43:36.074Z,13.33
2017-04-16T03:44:36.545Z,14.63
2017-04-16T03:45:36.309Z,12.50
2017-04-16T03:46:36.084Z,13.63
2017-04-16T03:47:35.898Z,15.38
2017-04-16T03:48:35.689Z,13.28
2017-04-16T03:49:36.209Z,15.10
2017-04-16T03:50:35.980Z,13.70
2017-04-16T03:51:35.803Z,14.57
2017-04-16T03:52:35.569Z,14.85
2017-04-16T03:53:35.381Z,15.42
2017-04-16T03:54:36.241Z,16.00
2017-04-16T03:55:36.009Z,12.35
2017-04-16T03:56:35.812Z,12.98
2017-04-16T03:57:35.585Z,15.33
2017-04-16T03:58:35.397Z,13.48
2017-04-16T03:59:35.185Z,15.27
2017-04-16T04:00:34.977Z,16.85
2017-04-16T04:01:34.748Z,14.05
2017-04-16T04:02:34.521Z,14.78
2017-04-16T04:03:34.349Z,14.82
2017-04-16T04:04:34.929Z,13.57
2017-04-16T04:05:34.697Z,14.57
2017-04-16T04:06:34.576Z,14.18
2017-04-16T04:07:34.365Z,14.47
2017-04-16T04:08:34.916Z,14.62
2017-04-16T04:09:34.712Z,14.50
2017-04-16T04:10:34.472Z,14.22
2017-04-16T04:11:40.880Z,17.02
2017-04-16T04:12:40.644Z,14.92
2017-04-16T04:13:41.149Z,13.37
2017-04-16T04:14:40.936Z,18.55
2017-04-16T04:15:40.682Z,15.92
2017-04-16T04:16:40.481Z,14.10
2017-04-16T04:17:40.277Z,15.00
2017-04-16T04:18:40.053Z,13.87
2017-04-16T04:19:40.172Z,14.85
2017-04-16T04:20:39.836Z,14.62
2017-04-16T04:21:40.073Z,16.27
2017-04-16T04:22:40.176Z,13.87
2017-04-16T04:23:39.852Z,13.43
2017-04-16T04:24:39.998Z,14.30
2017-04-16T04:25:39.788Z,15.43
2017-04-16T04:26:39.536Z,16.95
2017-04-16T04:27:39.337Z,13.82
2017-04-16T04:28:39.105Z,14.07
2017-04-16T04:29:38.904Z,18.18
2017-04-16T04:30:38.704Z,13.63
2017-04-16T04:31:38.505Z,18.47
2017-04-16T04:32:38.301Z,16.80
2017-04-16T04:33:38.068Z,15.13
2017-04-16T04:34:37.973Z,18.43
2017-04-16T04:35:37.720Z,13.58
2017-04-16T04:36:37.552Z,13.35
2017-04-16T04:37:37.388Z,15.23
2017-04-16T04:38:37.156Z,14.18
2017-04-16T04:39:36.936Z,13.07
2017-04-16T04:40:37.440Z,15.53
2017-04-16T04:41:38.004Z,13.47
2017-04-16T04:42:37.796Z,14.33
2017-04-16T04:43:37.588Z,16.27
2017-04-16T04:44:37.380Z,17.35
2017-04-16T04:45:37.909Z,14.17
2017-04-16T04:46:37.748Z,16.35
2017-04-16T04:47:37.504Z,16.95
2017-04-16T04:48:37.285Z,14.98
2017-04-16T04:49:37.849Z,13.93
2017-04-16T04:50:37.624Z,17.63
2017-04-16T04:51:38.164Z,13.70
2017-04-16T04:52:37.960Z,15.50
2017-04-16T04:53:37.756Z,14.60
2017-04-16T04:54:37.560Z,14.90
2017-04-16T04:55:37.360Z,13.77
2017-04-16T04:56:37.232Z,15.43
2017-04-16T04:57:37.024Z,14.48
2017-04-16T04:58:36.776Z,16.62
2017-04-16T04:59:36.556Z,17.37
2017-04-16T05:00:36.348Z,15.17
2017-04-16T05:01:36.148Z,16.03
2017-04-16T05:02:36.665Z,17.88
2017-04-16T05:03:37.184Z,16.85
2017-04-16T05:04:36.976Z,15.15
2017-04-16T05:05:36.744Z,14.33
2017-04-16T05:06:36.523Z,13.55
2017-04-16T05:07:36.333Z,13.72
2017-04-16T05:08:36.104Z,15.37
2017-04-16T05:09:35.900Z,20.68
2017-04-16T05:10:36.434Z,16.42
2017-04-16T05:11:36.948Z,16.62
2017-04-16T05:12:36.755Z,14.62
2017-04-16T05:13:36.537Z,13.88
2017-04-16T05:14:37.064Z,18.75
2017-04-16T05:15:36.844Z,15.75
2017-04-16T05:16:37.364Z,16.88
2017-04-16T05:17:37.168Z,18.47
2017-04-16T05:18:37.828Z,19.30
2017-04-16T05:19:37.583Z,14.88
2017-04-16T05:20:37.384Z,15.97
2017-04-16T05:21:37.168Z,21.98
2017-04-16T05:22:36.972Z,15.33
2017-04-16T05:23:37.636Z,15.52
2017-04-16T05:24:37.620Z,16.28
2017-04-16T05:25:37.392Z,16.23
2017-04-16T05:26:37.168Z,16.27
2017-04-16T05:27:37.009Z,15.97
2017-04-16T05:28:36.768Z,14.45
2017-04-16T05:29:36.543Z,19.08
2017-04-16T05:30:37.055Z,17.42
2017-04-16T05:31:37.591Z,14.87
2017-04-16T05:32:37.380Z,17.77
2017-04-16T05:33:37.897Z,17.85
2017-04-16T05:34:38.414Z,18.92
2017-04-16T05:35:38.963Z,17.23
2017-04-16T05:36:38.764Z,17.92
2017-04-16T05:37:45.331Z,16.18
2017-04-16T05:38:45.144Z,16.63
2017-04-16T05:39:44.919Z,16.63
2017-04-16T05:40:44.671Z,16.88
2017-04-16T05:41:44.435Z,16.05
2017-04-16T05:42:44.199Z,22.17
2017-04-16T05:43:44.740Z,18.85
2017-04-16T05:44:44.519Z,18.78
2017-04-16T05:45:45.023Z,17.10
2017-04-16T05:46:44.800Z,16.53
2017-04-16T05:47:44.559Z,17.85
2017-04-16T05:48:44.404Z,18.43
2017-04-16T05:49:44.172Z,18.08
2017-04-16T05:50:43.927Z,18.42
2017-04-16T05:51:43.684Z,20.07
2017-04-16T05:52:43.455Z,18.13
2017-04-16T05:53:43.220Z,17.72
2017-04-16T05:54:42.997Z,17.95
2017-04-16T05:55:42.980Z,18.82
2017-04-16T05:56:42.759Z,22.17
2017-04-16T05:57:42.575Z,19.10
2017-04-16T05:58:44.527Z,17.45
2017-04-16T05:59:44.275Z,18.78
2017-04-16T06:00:44.043Z,20.10
2017-04-16T06:01:43.827Z,20.78
2017-04-16T06:02:43.584Z,20.70
2017-04-16T06:03:43.363Z,19.80
2017-04-16T06:04:43.174Z,20.30
2017-04-16T06:05:42.943Z,19.87
2017-04-16T06:06:42.879Z,20.13
2017-04-16T06:07:42.690Z,20.35
2017-04-16T06:08:42.459Z,21.05
2017-04-16T06:09:42.239Z,20.68
2017-04-16T06:10:42.043Z,20.47
2017-04-16T06:11:41.814Z,21.32
2017-04-16T06:12:41.603Z,21.10
2017-04-16T06:13:41.383Z,20.93
2017-04-16T06:14:41.167Z,24.75
2017-04-16T06:15:40.915Z,21.25
2017-04-16T06:16:40.687Z,20.97
2017-04-16T06:17:40.447Z,22.62
2017-04-16T06:18:40.208Z,20.03
2017-04-16T06:19:40.311Z,20.83
2017-04-16T06:20:39.943Z,18.80
2017-04-16T06:21:41.687Z,20.42
2017-04-16T06:22:42.223Z,19.03
2017-04-16T06:23:42.720Z,20.88
2017-04-16T06:24:43.215Z,19.75
2017-04-16T06:25:43.312Z,20.50
2017-04-16T06:26:43.107Z,21.95
2017-04-16T06:27:42.971Z,22.70
2017-04-16T06:28:42.755Z,21.60
2017-04-16T06:29:43.275Z,20.27
2017-04-16T06:30:43.802Z,22.33
2017-04-16T06:31:43.595Z,18.68
2017-04-16T06:32:44.107Z,22.57
2017-04-16T06:33:43.878Z,21.02
2017-04-16T06:34:43.671Z,20.15
2017-04-16T06:35:43.471Z,20.83
2017-04-16T06:36:43.267Z,19.93
2017-04-16T06:37:43.015Z,23.82
2017-04-16T06:38:43.844Z,20.03
2017-04-16T06:39:44.347Z,19.37
2017-04-16T06:40:44.111Z,19.65
2017-04-16T06:41:43.916Z,19.12
2017-04-16T06:42:43.699Z,21.20
2017-04-16T06:43:43.462Z,17.55
2017-04-16T06:44:44.003Z,20.62
2017-04-16T06:45:43.751Z,18.15
2017-04-16T06:46:43.522Z,17.03
2017-04-16T06:47:43.678Z,19.65
2017-04-16T06:48:43.451Z,17.45
2017-04-16T06:49:43.763Z,17.35
2017-04-16T06:50:43.842Z,16.33
2017-04-16T06:51:43.610Z,17.45
2017-04-16T06:52:43.383Z,16.18
2017-04-16T06:53:43.183Z,17.03
2017-04-16T06:54:42.944Z,17.07
2017-04-16T06:55:42.702Z,16.07
2017-04-16T06:56:42.541Z,15.67
2017-04-16T06:57:42.318Z,16.73
2017-04-16T06:58:42.091Z,18.70
2017-04-16T06:59:41.851Z,20.13
2017-04-16T07:00:41.670Z,15.37
2017-04-16T07:01:41.402Z,14.32
2017-04-16T07:02:41.462Z,14.60
2017-04-16T07:03:41.923Z,16.13
2017-04-16T07:04:42.010Z,16.13
2017-04-16T07:05:48.563Z,15.05
2017-04-16T07:06:48.339Z,15.78
2017-04-16T07:07:48.234Z,16.27
2017-04-16T07:08:47.991Z,16.00
2017-04-16T07:09:47.742Z,16.28
2017-04-16T07:10:47.511Z,14.32
2017-04-16T07:11:47.290Z,15.30
2017-04-16T07:12:47.047Z,13.60
2017-04-16T07:13:46.838Z,14.52
2017-04-16T07:14:47.355Z,15.40
2017-04-16T07:15:47.842Z,15.73
2017-04-16T07:16:47.614Z,16.10
2017-04-16T07:17:47.371Z,13.97
2017-04-16T07:18:47.907Z,20.48
2017-04-16T07:19:47.630Z,13.27
2017-04-16T07:20:47.402Z,14.35
2017-04-16T07:21:47.914Z,13.73
2017-04-16T07:22:48.394Z,12.02
2017-04-16T07:23:48.200Z,12.80
2017-04-16T07:24:47.966Z,15.95
2017-04-16T07:25:47.730Z,13.53
2017-04-16T07:26:48.234Z,11.77
2017-04-16T07:27:48.858Z,11.68
2017-04-16T07:28:48.704Z,12.60
2017-04-16T07:29:48.445Z,12.80
2017-04-16T07:30:48.226Z,13.45
2017-04-16T07:31:48.005Z,12.92
2017-04-16T07:32:47.818Z,11.88
2017-04-16T07:33:47.614Z,11.93
2017-04-16T07:34:47.419Z,11.22
2017-04-16T07:35:47.186Z,11.65
2017-04-16T07:36:47.702Z,11.20
2017-04-16T07:37:48.227Z,10.45
2017-04-16T07:38:48.734Z,11.63
2017-04-16T07:39:49.269Z,10.62
2017-04-16T07:40:49.738Z,13.58
2017-04-16T07:41:49.502Z,11.57
2017-04-16T07:42:49.254Z,11.38
2017-04-16T07:43:49.013Z,12.22
2017-04-16T07:44:48.802Z,10.77
2017-04-16T07:45:48.554Z,10.20
2017-04-16T07:46:48.353Z,11.60
2017-04-16T07:47:48.106Z,9.82
2017-04-16T07:48:47.842Z,10.63
2017-04-16T07:49:47.582Z,12.03
2017-04-16T07:50:48.089Z,13.55
2017-04-16T07:51:47.861Z,11.13
2017-04-16T07:52:47.605Z,10.65
2017-04-16T07:53:48.090Z,10.33
2017-04-16T07:54:47.842Z,10.18
2017-04-16T07:55:47.650Z,10.78
2017-04-16T07:56:47.405Z,9.95
2017-04-16T07:57:47.167Z,14.60
2017-04-16T07:58:46.934Z,10.32
2017-04-16T07:59:47.170Z,11.93
2017-04-16T08:00:46.905Z,9.05
2017-04-16T08:01:46.705Z,11.72
2017-04-16T08:02:46.474Z,12.50
2017-04-16T08:03:46.406Z,10.58
2017-04-16T08:04:46.166Z,9.75
2017-04-16T08:05:45.930Z,10.75
2017-04-16T08:06:45.686Z,9.93
2017-04-16T08:07:45.598Z,9.93
2017-04-16T08:08:45.362Z,9.43
2017-04-16T08:09:45.837Z,10.18
2017-04-16T08:10:45.617Z,9.50
2017-04-16T08:11:45.370Z,10.32
2017-04-16T08:12:45.881Z,10.17
2017-04-16T08:13:45.826Z,9.92
2017-04-16T08:14:45.578Z,10.12
2017-04-16T08:15:45.305Z,11.93
2017-04-16T08:16:45.061Z,9.83
2017-04-16T08:17:44.801Z,9.88
2017-04-16T08:18:45.290Z,9.55
2017-04-16T08:19:45.045Z,12.63
2017-04-16T08:20:44.809Z,9.18
2017-04-16T08:21:44.593Z,14.52
2017-04-16T08:22:44.365Z,11.17
2017-04-16T08:23:44.106Z,12.30
2017-04-16T08:24:43.865Z,12.80
2017-04-16T08:25:43.613Z,9.55
2017-04-16T08:26:43.369Z,8.70
2017-04-16T08:27:43.101Z,8.83
2017-04-16T08:28:42.854Z,12.60
2017-04-16T08:29:42.617Z,11.02
2017-04-16T08:30:42.741Z,10.15
2017-04-16T08:31:42.356Z,10.13
2017-04-16T08:32:42.090Z,9.47
2017-04-16T08:33:41.894Z,9.57
2017-04-16T08:34:41.637Z,14.77
2017-04-16T08:35:42.125Z,12.65
2017-04-16T08:36:42.245Z,9.90
2017-04-16T08:37:41.865Z,10.60
2017-04-16T08:38:40.845Z,12.98
2017-04-16T08:39:40.613Z,9.38
2017-04-16T08:40:40.345Z,13.73
2017-04-16T08:41:40.125Z,10.00
2017-04-16T08:42:41.034Z,10.45
2017-04-16T08:43:40.989Z,10.90
2017-04-16T08:44:40.777Z,13.08
2017-04-16T08:45:41.311Z,10.73
2017-04-16T08:46:41.605Z,10.73
2017-04-16T08:47:42.137Z,14.78
2017-04-16T08:48:41.921Z,12.33
2017-04-16T08:49:41.684Z,10.95
2017-04-16T08:50:41.468Z,13.45
2017-04-16T08:51:41.245Z,11.25
2017-04-16T08:52:41.046Z,11.15
2017-04-16T08:53:41.514Z,9.25
2017-04-16T08:54:41.305Z,9.43
2017-04-16T08:55:41.082Z,11.15
2017-04-16T08:56:40.845Z,8.67
2017-04-16T08:57:40.613Z,10.68
2017-04-16T08:58:40.361Z,10.32
2017-04-16T08:59:40.109Z,11.93
2017-04-16T09:00:39.905Z,8.75
2017-04-16T09:01:39.645Z,9.02
2017-04-16T09:02:39.395Z,12.30
2017-04-16T09:03:39.168Z,9.43
2017-04-16T09:04:38.937Z,8.47
2017-04-16T09:05:38.670Z,10.62
2017-04-16T09:06:38.428Z,10.77
2017-04-16T09:07:38.169Z,9.38
2017-04-16T09:08:37.937Z,10.08
2017-04-16T09:09:37.705Z,11.92
2017-04-16T09:10:37.444Z,9.93
2017-04-16T09:11:37.209Z,10.32
2017-04-16T09:12:36.969Z,12.15
2017-04-16T09:13:36.728Z,11.03
2017-04-16T09:14:36.501Z,9.68
2017-04-16T09:15:36.301Z,10.33
2017-04-16T09:16:36.076Z,9.48
2017-04-16T09:17:35.852Z,10.65
2017-04-16T09:18:36.784Z,9.97
2017-04-16T09:19:36.552Z,9.38
2017-04-16T09:20:36.329Z,10.65
2017-04-16T09:21:36.080Z,10.70
2017-04-16T09:22:35.942Z,12.92
2017-04-16T09:23:35.733Z,8.05
2017-04-16T09:24:35.529Z,10.43
2017-04-16T09:25:35.293Z,10.88
2017-04-16T09:26:35.109Z,11.73
2017-04-16T09:27:35.620Z,10.62
2017-04-16T09:28:35.537Z,9.40
2017-04-16T09:29:36.036Z,11.47
2017-04-16T09:30:35.832Z,8.65
2017-04-16T09:31:36.308Z,10.62
2017-04-16T09:32:36.155Z,12.40
2017-04-16T09:33:36.345Z,12.82
2017-04-16T09:34:36.188Z,8.75
2017-04-16T09:35:36.684Z,8.55
2017-04-16T09:36:36.480Z,9.55
2017-04-16T09:37:36.276Z,12.28
2017-04-16T09:38:36.885Z,10.83
2017-04-16T09:39:36.648Z,11.20
2017-04-16T09:40:36.432Z,8.47
2017-04-16T09:41:36.952Z,10.25
2017-04-16T09:42:36.765Z,9.42
2017-04-16T09:43:36.520Z,8.43
2017-04-16T09:44:38.781Z,10.05
2017-04-16T09:45:38.717Z,8.40
2017-04-16T09:46:39.280Z,9.37
2017-04-16T09:47:39.045Z,8.33
2017-04-16T09:48:38.848Z,9.52
2017-04-16T09:49:38.617Z,11.12
2017-04-16T09:50:38.372Z,9.47
2017-04-16T09:51:38.133Z,8.55
2017-04-16T09:52:37.884Z,10.58
2017-04-16T09:53:37.657Z,6.68
2017-04-16T09:54:37.405Z,9.15
2017-04-16T09:55:37.168Z,10.08
2017-04-16T09:56:37.012Z,8.92
2017-04-16T09:57:36.752Z,9.53
2017-04-16T09:58:37.273Z,8.27
2017-04-16T09:59:37.036Z,10.27
2017-04-16T10:00:36.892Z,8.08
2017-04-16T10:01:36.656Z,9.27
2017-04-16T10:02:37.188Z,8.85
2017-04-16T10:03:37.664Z,14.38
2017-04-16T10:04:37.431Z,10.80
2017-04-16T10:05:37.203Z,8.53
2017-04-16T10:06:37.736Z,9.47
2017-04-16T10:07:37.524Z,8.15
2017-04-16T10:08:37.308Z,11.80
2017-04-16T10:09:37.124Z,8.72
2017-04-16T10:10:36.939Z,7.38
2017-04-16T10:11:36.711Z,8.92
2017-04-16T10:12:37.012Z,7.55
2017-04-16T10:13:36.773Z,6.70
2017-04-16T10:14:36.632Z,6.07
2017-04-16T10:15:37.264Z,8.93
2017-04-16T10:16:37.756Z,6.62
2017-04-16T10:17:37.596Z,7.02
2017-04-16T10:18:38.092Z,7.28
2017-04-16T10:19:38.567Z,7.20
2017-04-16T10:20:38.476Z,8.65
2017-04-16T10:21:38.243Z,7.92
2017-04-16T10:22:38.039Z,6.88
2017-04-16T10:23:37.836Z,7.18
2017-04-16T10:24:37.620Z,6.87
2017-04-16T10:25:37.389Z,6.97
2017-04-16T10:26:37.264Z,8.23
2017-04-16T10:27:37.176Z,8.57
2017-04-16T10:28:37.836Z,6.73
2017-04-16T10:29:37.927Z,8.47
2017-04-16T10:30:37.772Z,9.62
2017-04-16T10:31:37.547Z,7.45
2017-04-16T10:32:37.312Z,8.40
2017-04-16T10:33:37.271Z,7.67
2017-04-16T10:34:37.364Z,8.72
2017-04-16T10:35:37.144Z,15.68
2017-04-16T10:36:36.992Z,12.62
2017-04-16T10:37:36.764Z,6.95
2017-04-16T10:38:36.556Z,12.73
2017-04-16T10:39:36.379Z,10.12
2017-04-16T10:40:36.192Z,8.05
2017-04-16T10:41:36.023Z,8.92
2017-04-16T10:42:36.647Z,6.72
2017-04-16T10:43:36.423Z,8.07
2017-04-16T10:44:36.592Z,10.68
2017-04-16T10:45:36.340Z,8.77
2017-04-16T10:46:37.211Z,10.15
2017-04-16T10:47:37.008Z,10.65
2017-04-16T10:48:36.803Z,8.65
2017-04-16T10:49:36.580Z,10.63
2017-04-16T10:50:36.383Z,10.80
2017-04-16T10:51:36.371Z,8.88
2017-04-16T10:52:36.124Z,8.80
2017-04-16T10:53:35.900Z,6.98
2017-04-16T10:54:35.664Z,10.17
2017-04-16T10:55:35.455Z,6.90
2017-04-16T10:56:35.963Z,6.60
2017-04-16T10:57:35.800Z,8.12
2017-04-16T10:58:35.567Z,6.97
2017-04-16T10:59:35.386Z,6.83
2017-04-16T11:00:35.267Z,9.32
2017-04-16T11:01:35.083Z,7.73
2017-04-16T11:02:35.295Z,12.23
2017-04-16T11:03:35.451Z,9.73
2017-04-16T11:04:35.539Z,9.75
2017-04-16T11:05:35.503Z,7.38
2017-04-16T11:06:35.364Z,11.12
2017-04-16T11:07:36.132Z,9.53
2017-04-16T11:08:37.803Z,7.12
2017-04-16T11:09:37.859Z,10.40
2017-04-16T11:10:38.359Z,8.82
2017-04-16T11:11:38.127Z,7.30
2017-04-16T11:12:38.655Z,9.25
2017-04-16T11:13:38.435Z,10.80
2017-04-16T11:14:38.236Z,11.10
2017-04-16T11:15:37.992Z,8.87
2017-04-16T11:16:37.732Z,7.25
2017-04-16T11:17:37.519Z,8.07
2017-04-16T11:18:37.299Z,6.93
2017-04-16T11:19:37.064Z,9.65
2017-04-16T11:20:36.835Z,9.18
2017-04-16T11:21:36.623Z,8.50
2017-04-16T11:22:36.387Z,7.93
2017-04-16T11:23:36.716Z,5.85
2017-04-16T11:24:36.522Z,10.02
2017-04-16T11:25:36.344Z,6.43
2017-04-16T11:26:36.155Z,9.37
2017-04-16T11:27:35.924Z,9.37
2017-04-16T11:28:35.723Z,8.85
2017-04-16T11:29:35.535Z,7.02
2017-04-16T11:30:35.807Z,6.68
2017-04-16T11:31:35.615Z,6.88
2017-04-16T11:32:36.120Z,7.48
2017-04-16T11:33:35.943Z,6.78
2017-04-16T11:34:35.915Z,7.15
2017-04-16T11:35:35.710Z,9.83
2017-04-16T11:36:35.483Z,6.85
2017-04-16T11:37:36.059Z,6.62
2017-04-16T11:38:36.163Z,5.32
2017-04-16T11:39:35.935Z,6.20
2017-04-16T11:40:35.694Z,6.92
2017-04-16T11:41:36.135Z,5.38
2017-04-16T11:42:35.875Z,8.93
2017-04-16T11:43:35.627Z,6.25
2017-04-16T11:44:35.382Z,5.50
2017-04-16T11:45:35.126Z,6.38
2017-04-16T11:46:34.862Z,7.03
2017-04-16T11:47:34.631Z,7.17
2017-04-16T11:48:34.411Z,7.05
2017-04-16T11:49:34.179Z,10.67
2017-04-16T11:50:33.963Z,10.52
2017-04-16T11:51:33.698Z,6.67
2017-04-16T11:52:33.462Z,8.55
2017-04-16T11:53:33.234Z,11.37
2017-04-16T11:54:32.978Z,11.25
2017-04-16T11:55:32.770Z,7.83
2017-04-16T11:56:32.518Z,7.98
2017-04-16T11:57:32.274Z,7.05
2017-04-16T11:58:32.402Z,7.42
2017-04-16T11:59:33.318Z,10.75
2017-04-16T12:00:33.291Z,20.20
2017-04-16T12:01:33.051Z,11.98
2017-04-16T12:02:32.958Z,9.42
2017-04-16T12:03:36.131Z,6.80
2017-04-16T12:04:41.338Z,9.23
2017-04-16T12:05:53.354Z,9.08
2017-04-16T12:07:03.994Z,7.42
2017-04-16T12:08:04.087Z,6.40
2017-04-16T12:09:04.253Z,11.65
2017-04-16T12:10:04.018Z,10.38
2017-04-16T12:11:03.755Z,8.17
2017-04-16T12:12:03.486Z,6.58
2017-04-16T12:13:03.282Z,7.67
2017-04-16T12:14:03.050Z,10.07
2017-04-16T12:15:02.890Z,7.13
2017-04-16T12:16:02.710Z,6.98
2017-04-16T12:17:02.532Z,13.17
2017-04-16T12:18:02.351Z,5.32
2017-04-16T12:19:02.146Z,8.32
2017-04-16T12:20:01.963Z,6.55
2017-04-16T12:21:01.747Z,7.90
2017-04-16T12:22:01.535Z,6.75
2017-04-16T12:23:01.326Z,5.97
2017-04-16T12:24:01.094Z,8.00
2017-04-16T12:25:00.882Z,5.65
2017-04-16T12:26:00.690Z,5.98
2017-04-16T12:27:00.466Z,4.85
2017-04-16T12:28:00.266Z,7.10
2017-04-16T12:29:00.038Z,7.85
2017-04-16T12:29:59.795Z,6.05
2017-04-16T12:30:59.550Z,6.65
2017-04-16T12:31:59.294Z,5.42
2017-04-16T12:32:59.071Z,7.20
2017-04-16T12:33:58.822Z,7.75
2017-04-16T12:34:58.619Z,7.13
2017-04-16T12:35:58.410Z,5.22
2017-04-16T12:36:58.190Z,6.70
2017-04-16T12:37:58.003Z,6.10
2017-04-16T12:38:57.782Z,8.98
2017-04-16T12:39:57.542Z,5.20
2017-04-16T12:40:57.358Z,6.65
2017-04-16T12:41:58.098Z,9.10
2017-04-16T12:42:58.614Z,6.15
2017-04-16T12:43:58.414Z,5.20
2017-04-16T12:44:58.931Z,3.98
2017-04-16T12:45:59.450Z,4.70
2017-04-16T12:46:59.230Z,4.17
2017-04-16T12:47:59.010Z,4.72
2017-04-16T12:48:58.819Z,4.45
2017-04-16T12:49:58.594Z,7.38
2017-04-16T12:50:58.618Z,4.80
2017-04-16T12:51:58.402Z,3.48
2017-04-16T12:52:58.224Z,6.18
2017-04-16T12:53:58.014Z,5.73
2017-04-16T12:54:57.790Z,5.78
2017-04-16T12:55:57.582Z,5.05
2017-04-16T12:56:57.374Z,6.10
2017-04-16T12:57:57.158Z,5.38
2017-04-16T12:58:57.098Z,6.02
2017-04-16T12:59:56.865Z,5.30
2017-04-16T13:00:56.925Z,9.75
2017-04-16T13:01:57.403Z,5.57
2017-04-16T13:02:57.930Z,7.15
2017-04-16T13:03:57.697Z,6.45
2017-04-16T13:04:57.462Z,4.73